Time;durP1;ratioP1;P1;durP2;ratioP2;P2;SDS_P1;SDS_P2;PMS_P1;PMS_P2;Temp;Humidity;BMP_temperature;BMP_pressure;BME280_temperature;BME280_humidity;BME280_pressure;Samples;Min_cycle;Max_cycle;Signal;HPM_P1;HPM_P2
2023/08/14 00:00:52;;;;;;;8.23;5.95;;;;;;;;;;5083844;28;20116;-65
2023/08/14 00:03:18;;;;;;;7.45;5.18;;;;;;;;;;5083631;28;20025;-65
2023/08/14 00:05:43;;;;;;;7.88;5.95;;;;;;;;;;5083617;28;20015;-64
2023/08/14 00:08:09;;;;;;;10.52;5.82;;;;;;;;;;5078929;28;20094;-64
2023/08/14 00:10:34;;;;;;;7.25;5.25;;;;;;;;;;5073296;28;20028;-64
2023/08/14 00:12:59;;;;;;;7.57;5.07;;;;;;;;;;5092038;28;20016;-65
2023/08/14 00:15:24;;;;;;;7.63;5.37;;;;;;;;;;5092259;28;20266;-64
2023/08/14 00:17:50;;;;;;;6.63;4.97;;;;;;;;;;5091728;28;20282;-65
2023/08/14 00:20:16;;;;;;;12.15;5.40;;;;;;;;;;5093363;28;20111;-65
2023/08/14 00:22:41;;;;;;;7.35;5.43;;;;;;;;;;5091830;28;20562;-65
2023/08/14 00:25:06;;;;;;;9.57;5.55;;;;;;;;;;5092597;28;20040;-65
2023/08/14 00:27:32;;;;;;;7.80;5.03;;;;;;;;;;5074592;28;20074;-65
2023/08/14 00:29:57;;;;;;;7.17;5.00;;;;;;;;;;5073297;28;20460;-65
2023/08/14 00:32:22;;;;;;;10.60;5.63;;;;;;;;;;5090259;28;20289;-65
2023/08/14 00:34:47;;;;;;;7.27;5.27;;;;;;;;;;5081886;28;20017;-65
2023/08/14 00:37:13;;;;;;;8.10;5.17;;;;;;;;;;5073127;28;20725;-65
2023/08/14 00:39:38;;;;;;;7.05;5.28;;;;;;;;;;5083445;28;20710;-65
2023/08/14 00:42:03;;;;;;;7.70;5.57;;;;;;;;;;5092048;28;20059;-66
2023/08/14 00:44:30;;;;;;;9.35;5.43;;;;;;;;;;5092811;28;20023;-65
2023/08/14 00:46:55;;;;;;;8.68;5.15;;;;;;;;;;5091285;28;20600;-66
2023/08/14 00:49:21;;;;;;;6.25;4.70;;;;;;;;;;5092253;28;20111;-65
2023/08/14 00:51:46;;;;;;;9.40;5.43;;;;;;;;;;5075606;28;20017;-65
2023/08/14 00:54:11;;;;;;;9.10;5.50;;;;;;;;;;5079385;28;20040;-65
2023/08/14 00:56:37;;;;;;;7.40;5.35;;;;;;;;;;5072547;28;20032;-65
2023/08/14 00:59:02;;;;;;;8.10;5.10;;;;;;;;;;5079765;28;20427;-65
2023/08/14 01:01:27;;;;;;;7.90;5.13;;;;;;;;;;5086276;28;20024;-65
2023/08/14 01:03:53;;;;;;;8.40;4.80;;;;;;;;;;5078402;28;20082;-65
2023/08/14 01:06:18;;;;;;;7.18;4.72;;;;;;;;;;5075252;28;20027;-65
2023/08/14 01:08:44;;;;;;;8.87;5.03;;;;;;;;;;5076999;28;20752;-65
2023/08/14 01:11:19;;;;;;;12.00;5.57;;;;;;;;;;5086333;28;20258;-65
2023/08/14 01:13:54;;;;;;;6.85;4.78;;;;;;;;;;5091045;28;20038;-65
2023/08/14 01:16:22;;;;;;;7.40;4.93;;;;;;;;;;5089352;28;20031;-65
2023/08/14 01:18:49;;;;;;;7.13;4.93;;;;;;;;;;5089418;28;20024;-65
2023/08/14 01:21:17;;;;;;;5.82;4.38;;;;;;;;;;5087868;28;20024;-65
2023/08/14 01:23:48;;;;;;;6.30;4.65;;;;;;;;;;5087988;28;20077;-65
2023/08/14 01:26:13;;;;;;;7.15;4.45;;;;;;;;;;5087293;28;20028;-65
2023/08/14 01:28:39;;;;;;;11.82;4.93;;;;;;;;;;5049574;28;20048;-65
2023/08/14 01:31:04;;;;;;;6.07;4.65;;;;;;;;;;5042697;28;20047;-65
2023/08/14 01:33:29;;;;;;;8.45;4.80;;;;;;;;;;5040021;28;20074;-65
2023/08/14 01:36:01;;;;;;;7.25;4.15;;;;;;;;;;5036072;28;20032;-65
2023/08/14 01:38:33;;;;;;;6.50;3.95;;;;;;;;;;5039111;28;20024;-65
2023/08/14 01:40:59;;;;;;;6.38;4.38;;;;;;;;;;5062470;28;20226;-65
2023/08/14 01:43:29;;;;;;;7.13;4.73;;;;;;;;;;5084717;28;20028;-65
2023/08/14 01:45:54;;;;;;;7.70;4.45;;;;;;;;;;5083440;28;20031;-65
2023/08/14 01:48:21;;;;;;;7.80;4.75;;;;;;;;;;5087967;28;20032;-65
2023/08/14 01:50:48;;;;;;;7.18;4.18;;;;;;;;;;5080864;28;20058;-65
2023/08/14 01:53:13;;;;;;;7.25;4.53;;;;;;;;;;5076942;28;20016;-65
2023/08/14 01:55:38;;;;;;;7.10;3.75;;;;;;;;;;5076676;28;20086;-65
2023/08/14 01:58:03;;;;;;;10.87;4.00;;;;;;;;;;5052393;28;20020;-65
2023/08/14 02:00:31;;;;;;;8.65;4.50;;;;;;;;;;5040958;28;21121;-65
2023/08/14 02:02:57;;;;;;;12.68;4.72;;;;;;;;;;5037375;28;20418;-65
2023/08/14 02:05:22;;;;;;;5.60;4.10;;;;;;;;;;5040369;28;20028;-65
2023/08/14 02:07:47;;;;;;;6.93;4.22;;;;;;;;;;5047550;28;20092;-65
2023/08/14 02:10:13;;;;;;;5.28;3.80;;;;;;;;;;5079644;28;20024;-65
2023/08/14 02:12:38;;;;;;;6.30;3.67;;;;;;;;;;5086281;28;20078;-65
2023/08/14 02:15:03;;;;;;;10.18;4.25;;;;;;;;;;5082519;28;20054;-64
2023/08/14 02:17:29;;;;;;;6.63;3.92;;;;;;;;;;5084099;28;20483;-64
2023/08/14 02:19:54;;;;;;;7.57;3.70;;;;;;;;;;5077061;28;20035;-64
2023/08/14 02:22:20;;;;;;;7.00;3.88;;;;;;;;;;5085869;28;20762;-64
2023/08/14 02:24:45;;;;;;;5.45;4.18;;;;;;;;;;5091084;28;20035;-64
2023/08/14 02:27:10;;;;;;;5.43;3.88;;;;;;;;;;5091629;28;20502;-65
2023/08/14 02:29:35;;;;;;;6.50;4.38;;;;;;;;;;5090893;28;20026;-65
2023/08/14 02:32:01;;;;;;;9.93;4.47;;;;;;;;;;5077409;28;20104;-65
2023/08/14 02:34:33;;;;;;;10.40;4.68;;;;;;;;;;5082421;28;20032;-65
2023/08/14 02:36:58;;;;;;;9.50;4.10;;;;;;;;;;5073977;28;20111;-65
2023/08/14 02:39:24;;;;;;;9.83;4.50;;;;;;;;;;5087384;28;20099;-64
2023/08/14 02:41:49;;;;;;;10.63;4.50;;;;;;;;;;5088044;28;20306;-65
2023/08/14 02:44:14;;;;;;;8.97;4.07;;;;;;;;;;5088606;28;20290;-64
2023/08/14 02:46:39;;;;;;;7.47;3.90;;;;;;;;;;5086321;28;20285;-65
2023/08/14 02:49:04;;;;;;;5.30;3.42;;;;;;;;;;5081699;28;20270;-65
2023/08/14 02:51:30;;;;;;;8.48;3.60;;;;;;;;;;5087837;28;20436;-65
2023/08/14 02:53:55;;;;;;;6.53;4.47;;;;;;;;;;5085343;28;20073;-65
2023/08/14 02:56:20;;;;;;;7.20;3.85;;;;;;;;;;5088784;28;20032;-64
2023/08/14 02:58:45;;;;;;;6.05;3.80;;;;;;;;;;5042766;28;20968;-65
2023/08/14 03:01:11;;;;;;;5.50;4.03;;;;;;;;;;5028680;28;20125;-66
2023/08/14 03:03:36;;;;;;;9.88;3.88;;;;;;;;;;5061427;28;20282;-66
2023/08/14 03:06:01;;;;;;;5.95;3.70;;;;;;;;;;5082941;28;20423;-65
2023/08/14 03:08:27;;;;;;;6.93;3.60;;;;;;;;;;5085382;28;20020;-65
2023/08/14 03:10:53;;;;;;;8.00;3.67;;;;;;;;;;5073503;28;20483;-65
2023/08/14 03:13:18;;;;;;;9.38;4.32;;;;;;;;;;5085715;28;20101;-65
2023/08/14 03:15:43;;;;;;;6.07;4.47;;;;;;;;;;5077506;28;20375;-65
2023/08/14 03:18:08;;;;;;;6.40;3.95;;;;;;;;;;5088692;28;20276;-66
2023/08/14 03:20:34;;;;;;;5.82;3.47;;;;;;;;;;5078611;28;20050;-65
2023/08/14 03:22:59;;;;;;;7.72;4.05;;;;;;;;;;5076498;28;20074;-65
2023/08/14 03:25:24;;;;;;;8.57;4.07;;;;;;;;;;5091835;28;20028;-64
2023/08/14 03:27:50;;;;;;;7.60;3.92;;;;;;;;;;5077473;28;20750;-65
2023/08/14 03:30:15;;;;;;;5.70;3.95;;;;;;;;;;5093409;28;20550;-64
2023/08/14 03:32:40;;;;;;;4.43;3.70;;;;;;;;;;5065561;28;20017;-65
2023/08/14 03:35:05;;;;;;;10.13;4.20;;;;;;;;;;5051959;28;20283;-65
2023/08/14 03:37:31;;;;;;;5.00;3.80;;;;;;;;;;5092775;28;20466;-65
2023/08/14 03:39:56;;;;;;;9.30;3.55;;;;;;;;;;5090338;28;20040;-66
2023/08/14 03:42:21;;;;;;;6.57;3.70;;;;;;;;;;5081463;28;20086;-65
2023/08/14 03:44:46;;;;;;;7.27;3.60;;;;;;;;;;5088838;28;20281;-65
2023/08/14 03:47:12;;;;;;;7.03;3.47;;;;;;;;;;5091501;28;20360;-65
2023/08/14 03:49:37;;;;;;;6.82;4.30;;;;;;;;;;5089011;28;20278;-65
2023/08/14 03:52:03;;;;;;;7.95;4.30;;;;;;;;;;5091438;28;20475;-66
2023/08/14 03:54:28;;;;;;;6.50;4.13;;;;;;;;;;5078494;28;20051;-66
2023/08/14 03:56:53;;;;;;;7.32;3.65;;;;;;;;;;5080143;28;20063;-66
2023/08/14 03:59:18;;;;;;;6.50;4.10;;;;;;;;;;5088831;28;20367;-66
2023/08/14 04:01:44;;;;;;;6.10;3.42;;;;;;;;;;5089804;28;20308;-66
2023/08/14 04:04:09;;;;;;;6.32;3.72;;;;;;;;;;5091336;28;20074;-66
2023/08/14 04:06:35;;;;;;;7.47;4.10;;;;;;;;;;5089499;28;20037;-66
2023/08/14 04:09:01;;;;;;;6.03;3.90;;;;;;;;;;5091277;28;20047;-66
2023/08/14 04:11:26;;;;;;;6.75;4.32;;;;;;;;;;5083148;28;20098;-66
2023/08/14 04:13:51;;;;;;;5.20;3.67;;;;;;;;;;5093013;28;20067;-66
2023/08/14 04:16:17;;;;;;;10.83;3.83;;;;;;;;;;5092536;28;20024;-66
2023/08/14 04:18:42;;;;;;;8.63;4.00;;;;;;;;;;5092597;28;20278;-66
2023/08/14 04:21:07;;;;;;;7.10;3.53;;;;;;;;;;5092774;28;20286;-66
2023/08/14 04:23:32;;;;;;;6.17;3.70;;;;;;;;;;5090802;28;20278;-66
2023/08/14 04:25:57;;;;;;;5.78;3.85;;;;;;;;;;5092716;28;20307;-66
2023/08/14 04:28:23;;;;;;;7.40;3.95;;;;;;;;;;5086529;28;20047;-66
2023/08/14 04:30:49;;;;;;;7.10;3.67;;;;;;;;;;5088105;28;20036;-64
2023/08/14 04:33:14;;;;;;;8.23;3.65;;;;;;;;;;5087441;28;20067;-66
2023/08/14 04:35:42;;;;;;;5.22;3.42;;;;;;;;;;5089182;28;20024;-65
2023/08/14 04:38:07;;;;;;;5.68;4.00;;;;;;;;;;5092157;28;20455;-65
2023/08/14 04:40:33;;;;;;;7.38;4.30;;;;;;;;;;5089324;28;20081;-65
2023/08/14 04:42:58;;;;;;;12.77;4.65;;;;;;;;;;5029915;28;20024;-66
2023/08/14 04:45:23;;;;;;;8.13;4.40;;;;;;;;;;5034695;28;20127;-65
2023/08/14 04:47:48;;;;;;;8.07;4.90;;;;;;;;;;5043972;28;20994;-65
2023/08/14 04:50:14;;;;;;;9.40;5.40;;;;;;;;;;5073315;28;20024;-65
2023/08/14 04:52:39;;;;;;;11.85;5.55;;;;;;;;;;5076749;28;20085;-65
2023/08/14 04:55:05;;;;;;;8.77;4.63;;;;;;;;;;5074029;28;20115;-65
2023/08/14 04:57:30;;;;;;;6.30;5.03;;;;;;;;;;5083339;28;20028;-65
2023/08/14 04:59:55;;;;;;;8.02;4.93;;;;;;;;;;5087268;28;20064;-65
2023/08/14 05:02:21;;;;;;;6.03;4.65;;;;;;;;;;5088149;28;20016;-65
2023/08/14 05:04:46;;;;;;;5.18;4.25;;;;;;;;;;5089864;28;20050;-65
2023/08/14 05:07:11;;;;;;;6.53;4.20;;;;;;;;;;5086659;28;20111;-65
2023/08/14 05:09:36;;;;;;;6.75;4.28;;;;;;;;;;5082774;28;20024;-65
2023/08/14 05:12:02;;;;;;;12.73;5.23;;;;;;;;;;5072478;28;20017;-65
2023/08/14 05:14:27;;;;;;;7.75;4.20;;;;;;;;;;5064594;28;20263;-65
2023/08/14 05:16:52;;;;;;;8.27;4.22;;;;;;;;;;5072894;28;20020;-65
2023/08/14 05:19:18;;;;;;;7.20;4.68;;;;;;;;;;5072656;28;20027;-65
2023/08/14 05:21:45;;;;;;;10.35;4.38;;;;;;;;;;5085088;28;20107;-65
2023/08/14 05:24:10;;;;;;;5.82;3.55;;;;;;;;;;5072838;28;20036;-65
2023/08/14 05:26:35;;;;;;;6.83;4.40;;;;;;;;;;5083864;28;20032;-65
2023/08/14 05:29:00;;;;;;;12.02;4.45;;;;;;;;;;5081372;28;20281;-65
2023/08/14 05:31:26;;;;;;;5.93;3.90;;;;;;;;;;5078029;28;20147;-65
2023/08/14 05:33:51;;;;;;;6.27;3.80;;;;;;;;;;5078695;28;20752;-66
2023/08/14 05:36:16;;;;;;;8.97;4.27;;;;;;;;;;5071104;28;21174;-65
2023/08/14 05:38:43;;;;;;;5.25;3.47;;;;;;;;;;5073964;28;20691;-65
2023/08/14 05:41:09;;;;;;;7.50;3.70;;;;;;;;;;5079255;28;20029;-65
2023/08/14 05:43:34;;;;;;;8.32;4.38;;;;;;;;;;5068538;28;20039;-65
2023/08/14 05:45:59;;;;;;;8.50;4.00;;;;;;;;;;5079109;28;20507;-65
2023/08/14 05:48:24;;;;;;;7.63;3.63;;;;;;;;;;5077619;28;20590;-65
2023/08/14 05:50:52;;;;;;;6.22;3.85;;;;;;;;;;5080418;28;20282;-65
2023/08/14 05:53:18;;;;;;;10.57;4.47;;;;;;;;;;5075158;28;20017;-65
2023/08/14 05:55:43;;;;;;;6.55;3.60;;;;;;;;;;5063574;28;20025;-65
2023/08/14 05:58:08;;;;;;;7.75;4.00;;;;;;;;;;5028887;28;20851;-65
2023/08/14 06:00:35;;;;;;;10.48;3.72;;;;;;;;;;5055547;28;20032;-65
2023/08/14 06:03:00;;;;;;;7.35;3.38;;;;;;;;;;5078166;28;20029;-65
2023/08/14 06:05:25;;;;;;;7.55;3.40;;;;;;;;;;5081448;28;20052;-65
2023/08/14 06:07:53;;;;;;;7.00;3.22;;;;;;;;;;5079497;28;20108;-65
2023/08/14 06:10:18;;;;;;;6.40;3.60;;;;;;;;;;5088483;28;20446;-65
2023/08/14 06:12:44;;;;;;;8.70;3.70;;;;;;;;;;5091294;28;20091;-65
2023/08/14 06:15:10;;;;;;;9.48;4.32;;;;;;;;;;5080798;28;20042;-65
2023/08/14 06:17:36;;;;;;;7.72;3.53;;;;;;;;;;5031201;28;20024;-66
2023/08/14 06:20:02;;;;;;;5.50;3.25;;;;;;;;;;5034504;28;20082;-65
2023/08/14 06:22:28;;;;;;;8.57;3.80;;;;;;;;;;5040532;28;20077;-65
2023/08/14 06:24:53;;;;;;;6.70;3.10;;;;;;;;;;5043601;28;20084;-66
2023/08/14 06:27:18;;;;;;;9.65;3.67;;;;;;;;;;5042981;28;20116;-66
2023/08/14 06:29:43;;;;;;;7.00;3.55;;;;;;;;;;5037914;28;20031;-65
2023/08/14 06:32:09;;;;;;;4.75;2.95;;;;;;;;;;5062966;28;20028;-65
2023/08/14 06:34:34;;;;;;;7.47;3.50;;;;;;;;;;5079490;28;20100;-65
2023/08/14 06:36:59;;;;;;;6.88;2.92;;;;;;;;;;5039849;28;20935;-65
2023/08/14 06:39:25;;;;;;;5.80;3.08;;;;;;;;;;5077112;28;20030;-66
2023/08/14 06:41:50;;;;;;;5.35;3.22;;;;;;;;;;5082552;28;20103;-65
2023/08/14 06:44:15;;;;;;;5.57;3.28;;;;;;;;;;5076694;28;20103;-65
2023/08/14 06:46:41;;;;;;;6.03;3.17;;;;;;;;;;5085583;28;20043;-65
2023/08/14 06:49:07;;;;;;;6.60;3.38;;;;;;;;;;5085672;28;20706;-65
2023/08/14 06:51:32;;;;;;;5.10;3.20;;;;;;;;;;5087052;28;20012;-66
2023/08/14 06:53:58;;;;;;;8.80;3.35;;;;;;;;;;5089817;28;20028;-66
2023/08/14 06:56:24;;;;;;;6.18;3.70;;;;;;;;;;5087443;28;20066;-66
2023/08/14 06:58:50;;;;;;;5.63;3.33;;;;;;;;;;5090421;28;20044;-66
2023/08/14 07:01:15;;;;;;;6.30;3.67;;;;;;;;;;5089022;28;20082;-66
2023/08/14 07:03:40;;;;;;;10.20;3.60;;;;;;;;;;5077295;28;20506;-66
2023/08/14 07:06:05;;;;;;;7.10;3.90;;;;;;;;;;5090528;28;20028;-65
2023/08/14 07:08:31;;;;;;;7.72;4.07;;;;;;;;;;5082894;28;20058;-65
2023/08/14 07:10:56;;;;;;;5.63;3.38;;;;;;;;;;5077938;28;20027;-65
2023/08/14 07:13:21;;;;;;;10.35;3.38;;;;;;;;;;5076710;28;20021;-66
2023/08/14 07:15:47;;;;;;;8.63;3.08;;;;;;;;;;5080542;28;20021;-65
2023/08/14 07:18:14;;;;;;;8.20;3.70;;;;;;;;;;5073928;28;20054;-66
2023/08/14 07:20:39;;;;;;;5.70;2.78;;;;;;;;;;5089790;28;20031;-65
2023/08/14 07:23:05;;;;;;;6.32;3.35;;;;;;;;;;5091663;28;20017;-65
2023/08/14 07:25:30;;;;;;;10.57;3.20;;;;;;;;;;5093107;28;20091;-65
2023/08/14 07:27:55;;;;;;;6.88;2.88;;;;;;;;;;5093928;28;20028;-66
2023/08/14 07:30:21;;;;;;;6.37;2.73;;;;;;;;;;5089336;28;20371;-66
2023/08/14 07:32:46;;;;;;;5.83;2.90;;;;;;;;;;5074679;28;20279;-65
2023/08/14 07:35:12;;;;;;;7.25;2.63;;;;;;;;;;5074583;28;20346;-65
2023/08/14 07:37:37;;;;;;;8.13;2.70;;;;;;;;;;5073525;28;20360;-65
2023/08/14 07:40:02;;;;;;;4.50;2.30;;;;;;;;;;5073659;28;20051;-66
2023/08/14 07:42:27;;;;;;;5.82;2.20;;;;;;;;;;5063545;28;20271;-66
2023/08/14 07:44:53;;;;;;;6.32;2.50;;;;;;;;;;5054473;28;20035;-65
2023/08/14 07:47:18;;;;;;;5.28;2.33;;;;;;;;;;5064356;28;20012;-66
2023/08/14 07:49:43;;;;;;;5.53;2.70;;;;;;;;;;5085790;28;20024;-66
2023/08/14 07:52:10;;;;;;;10.20;2.92;;;;;;;;;;5082289;28;20391;-65
2023/08/14 07:54:35;;;;;;;8.63;2.45;;;;;;;;;;5079595;28;20471;-66
2023/08/14 07:57:00;;;;;;;6.00;2.73;;;;;;;;;;5086910;28;20024;-66
2023/08/14 07:59:25;;;;;;;5.40;2.50;;;;;;;;;;5085458;28;20953;-67
2023/08/14 08:01:51;;;;;;;5.77;2.37;;;;;;;;;;5079859;28;20289;-65
2023/08/14 08:04:16;;;;;;;4.77;2.17;;;;;;;;;;5085178;28;20331;-65
2023/08/14 08:06:41;;;;;;;5.83;1.80;;;;;;;;;;5075956;28;20300;-65
2023/08/14 08:09:07;;;;;;;4.83;2.00;;;;;;;;;;5044348;28;20273;-65
2023/08/14 08:11:32;;;;;;;10.75;1.92;;;;;;;;;;5049719;28;21267;-66
2023/08/14 08:13:59;;;;;;;5.07;2.03;;;;;;;;;;5083606;28;20028;-65
2023/08/14 08:16:24;;;;;;;3.22;1.63;;;;;;;;;;5092013;28;20595;-65
2023/08/14 08:18:49;;;;;;;4.55;1.75;;;;;;;;;;5092580;28;20027;-65
2023/08/14 08:21:14;;;;;;;3.13;1.50;;;;;;;;;;5071980;28;20020;-65
2023/08/14 08:23:40;;;;;;;6.90;2.50;;;;;;;;;;5030013;28;21180;-65
2023/08/14 08:26:05;;;;;;;6.97;2.17;;;;;;;;;;5039569;28;20321;-65
2023/08/14 08:28:30;;;;;;;4.10;2.43;;;;;;;;;;5033858;28;20270;-65
2023/08/14 08:30:56;;;;;;;3.75;2.08;;;;;;;;;;5044409;28;20270;-65
2023/08/14 08:33:21;;;;;;;3.88;1.95;;;;;;;;;;5037070;28;20098;-66
2023/08/14 08:35:46;;;;;;;3.50;1.80;;;;;;;;;;5042262;28;20032;-65
2023/08/14 08:38:11;;;;;;;3.57;1.73;;;;;;;;;;5034737;28;20276;-64
2023/08/14 08:40:38;;;;;;;5.47;1.67;;;;;;;;;;5040833;28;20275;-65
2023/08/14 08:43:04;;;;;;;4.28;1.77;;;;;;;;;;5043138;28;20450;-66
2023/08/14 08:45:32;;;;;;;6.68;1.50;;;;;;;;;;5040001;28;20024;-66
2023/08/14 08:47:59;;;;;;;5.30;1.77;;;;;;;;;;5038914;28;20021;-65
2023/08/14 08:50:25;;;;;;;3.97;1.75;;;;;;;;;;5038340;28;20027;-65
2023/08/14 08:52:51;;;;;;;4.07;1.75;;;;;;;;;;5072895;28;20128;-66
2023/08/14 08:55:16;;;;;;;3.85;1.55;;;;;;;;;;5076776;28;20502;-65
2023/08/14 08:57:42;;;;;;;4.65;1.90;;;;;;;;;;5074740;28;20019;-65
2023/08/14 09:00:08;;;;;;;3.55;1.42;;;;;;;;;;5078419;28;20479;-65
2023/08/14 09:02:33;;;;;;;3.33;1.70;;;;;;;;;;5075761;28;20118;-65
2023/08/14 09:04:59;;;;;;;3.53;1.73;;;;;;;;;;5079646;28;20031;-65
2023/08/14 09:07:24;;;;;;;4.40;1.25;;;;;;;;;;5082217;28;20035;-65
2023/08/14 09:09:49;;;;;;;2.67;1.20;;;;;;;;;;5074378;28;20447;-65
2023/08/14 09:12:15;;;;;;;3.80;1.38;;;;;;;;;;5077111;28;20336;-65
2023/08/14 09:14:41;;;;;;;3.85;1.60;;;;;;;;;;5029609;28;20121;-65
2023/08/14 09:17:06;;;;;;;3.50;1.58;;;;;;;;;;5044262;28;20112;-65
2023/08/14 09:19:31;;;;;;;4.65;1.30;;;;;;;;;;5079924;28;20582;-65
2023/08/14 09:21:56;;;;;;;7.40;1.63;;;;;;;;;;5079651;28;20019;-65
2023/08/14 09:24:22;;;;;;;3.17;1.27;;;;;;;;;;5092074;28;20278;-65
2023/08/14 09:26:47;;;;;;;2.63;1.00;;;;;;;;;;5086341;28;20019;-65
2023/08/14 09:29:13;;;;;;;3.20;1.50;;;;;;;;;;5089089;28;20063;-65
2023/08/14 09:31:41;;;;;;;3.22;1.35;;;;;;;;;;5090673;28;20028;-66
2023/08/14 09:34:07;;;;;;;3.85;1.55;;;;;;;;;;5076886;28;20032;-65
2023/08/14 09:36:33;;;;;;;3.07;1.40;;;;;;;;;;5071957;28;20021;-65
2023/08/14 09:38:58;;;;;;;5.30;1.40;;;;;;;;;;5071510;28;20356;-65
2023/08/14 09:41:24;;;;;;;4.57;1.33;;;;;;;;;;5071791;28;20055;-65
2023/08/14 09:43:49;;;;;;;3.85;1.55;;;;;;;;;;5072355;28;20267;-65
2023/08/14 09:46:17;;;;;;;1.83;0.90;;;;;;;;;;5085286;28;20060;-65
2023/08/14 09:48:46;;;;;;;5.63;1.63;;;;;;;;;;5090898;28;20274;-65
2023/08/14 09:51:12;;;;;;;2.88;1.30;;;;;;;;;;5077002;28;20094;-65
2023/08/14 09:53:47;;;;;;;2.50;1.13;;;;;;;;;;5091094;28;20012;-65
2023/08/14 09:56:13;;;;;;;4.68;1.33;;;;;;;;;;5089696;28;20111;-65
2023/08/14 09:58:38;;;;;;;4.88;1.58;;;;;;;;;;5091170;28;20103;-65
2023/08/14 10:01:05;;;;;;;3.92;1.35;;;;;;;;;;5078630;28;20047;-65
2023/08/14 10:03:32;;;;;;;3.95;1.27;;;;;;;;;;5074937;28;20099;-65
2023/08/14 10:05:57;;;;;;;2.90;1.23;;;;;;;;;;5074681;28;20028;-65
2023/08/14 10:08:23;;;;;;;4.13;1.00;;;;;;;;;;5071707;28;20394;-65
2023/08/14 10:10:48;;;;;;;2.25;0.88;;;;;;;;;;5072935;28;20051;-65
2023/08/14 10:13:14;;;;;;;2.97;1.07;;;;;;;;;;5089439;28;20574;-65
2023/08/14 10:15:46;;;;;;;2.95;1.15;;;;;;;;;;5088356;28;20262;-65
2023/08/14 10:18:15;;;;;;;3.70;1.00;;;;;;;;;;5089711;28;20027;-65
2023/08/14 10:20:41;;;;;;;3.83;1.50;;;;;;;;;;5089527;28;20032;-65
2023/08/14 10:23:07;;;;;;;2.38;1.00;;;;;;;;;;5090052;28;20530;-66
2023/08/14 10:25:35;;;;;;;2.35;1.15;;;;;;;;;;5087047;28;20027;-65
2023/08/14 10:28:00;;;;;;;4.90;1.25;;;;;;;;;;5071131;28;20024;-65
2023/08/14 10:30:27;;;;;;;2.47;1.03;;;;;;;;;;5054212;28;20059;-66
2023/08/14 10:32:52;;;;;;;2.78;0.93;;;;;;;;;;5041607;28;20754;-65
2023/08/14 10:35:19;;;;;;;3.08;1.15;;;;;;;;;;5038187;28;20757;-66
2023/08/14 10:37:48;;;;;;;1.88;0.90;;;;;;;;;;5036133;28;20029;-66
2023/08/14 10:40:21;;;;;;;2.42;1.20;;;;;;;;;;5042681;28;20056;-66
2023/08/14 10:42:54;;;;;;;3.15;1.05;;;;;;;;;;5040789;28;20039;-65
2023/08/14 10:45:23;;;;;;;3.28;1.38;;;;;;;;;;5087223;28;20028;-65
2023/08/14 10:47:50;;;;;;;4.50;1.50;;;;;;;;;;5090460;28;20032;-65
2023/08/14 10:50:17;;;;;;;5.40;1.50;;;;;;;;;;5073703;28;20877;-65
2023/08/14 10:52:50;;;;;;;2.65;1.10;;;;;;;;;;5019551;28;20904;-65
2023/08/14 10:55:23;;;;;;;3.45;1.33;;;;;;;;;;5035114;28;20085;-65
2023/08/14 10:57:48;;;;;;;3.33;1.10;;;;;;;;;;5040387;28;20088;-66
2023/08/14 11:00:24;;;;;;;3.58;1.30;;;;;;;;;;5040439;28;20024;-66
2023/08/14 11:02:51;;;;;;;5.20;1.13;;;;;;;;;;5020769;28;20020;-65
2023/08/14 11:05:17;;;;;;;5.30;1.48;;;;;;;;;;5042831;28;20180;-66
2023/08/14 11:07:54;;;;;;;2.17;1.08;;;;;;;;;;5034101;28;20024;-66
2023/08/14 11:10:20;;;;;;;4.18;1.27;;;;;;;;;;5061464;28;20071;-65
2023/08/14 11:12:45;;;;;;;5.15;1.20;;;;;;;;;;5083479;28;20048;-66
2023/08/14 11:15:10;;;;;;;2.90;1.35;;;;;;;;;;5065832;28;20017;-66
2023/08/14 11:17:36;;;;;;;3.60;1.17;;;;;;;;;;5052302;28;20025;-65
2023/08/14 11:20:01;;;;;;;2.83;0.90;;;;;;;;;;5069333;28;20040;-66
2023/08/14 11:22:27;;;;;;;3.67;1.30;;;;;;;;;;5072540;28;20321;-66
2023/08/14 11:24:52;;;;;;;5.27;1.30;;;;;;;;;;5070434;28;20446;-65
2023/08/14 11:27:18;;;;;;;3.10;1.40;;;;;;;;;;5060849;28;20381;-66
2023/08/14 11:29:47;;;;;;;3.47;1.13;;;;;;;;;;5034786;28;20759;-66
2023/08/14 11:32:12;;;;;;;4.25;1.30;;;;;;;;;;5043679;28;20275;-66
2023/08/14 11:34:38;;;;;;;2.57;1.10;;;;;;;;;;5030572;28;20837;-65
2023/08/14 11:37:04;;;;;;;3.05;1.10;;;;;;;;;;5042764;28;20319;-64
2023/08/14 11:39:30;;;;;;;3.08;1.20;;;;;;;;;;5079016;28;20033;-65
2023/08/14 11:41:55;;;;;;;2.67;0.88;;;;;;;;;;5074703;28;20103;-65
2023/08/14 11:44:21;;;;;;;3.08;1.33;;;;;;;;;;5048320;28;20743;-65
2023/08/14 11:46:50;;;;;;;3.22;1.55;;;;;;;;;;5033873;28;20035;-65
2023/08/14 11:49:15;;;;;;;4.25;1.50;;;;;;;;;;5043261;28;20035;-65
2023/08/14 11:51:41;;;;;;;2.55;1.23;;;;;;;;;;5033748;28;20052;-65
2023/08/14 11:54:09;;;;;;;3.20;1.42;;;;;;;;;;5031411;28;20845;-65
2023/08/14 11:56:35;;;;;;;3.70;1.15;;;;;;;;;;5036317;28;20023;-64
2023/08/14 11:59:01;;;;;;;3.33;1.60;;;;;;;;;;5039007;28;20032;-64
2023/08/14 12:01:26;;;;;;;4.22;1.60;;;;;;;;;;5035198;28;20150;-65
2023/08/14 12:03:52;;;;;;;4.67;1.60;;;;;;;;;;5035936;28;20116;-65
2023/08/14 12:06:17;;;;;;;3.65;1.58;;;;;;;;;;5038183;28;21080;-64
2023/08/14 12:08:43;;;;;;;3.33;1.40;;;;;;;;;;5044640;28;20020;-65
2023/08/14 12:11:08;;;;;;;3.97;1.20;;;;;;;;;;5044082;28;20277;-65
2023/08/14 12:13:34;;;;;;;3.15;0.98;;;;;;;;;;5054397;28;20275;-65
2023/08/14 12:16:08;;;;;;;6.53;1.40;;;;;;;;;;5074811;28;20121;-65
2023/08/14 12:18:33;;;;;;;2.38;1.33;;;;;;;;;;5073454;28;20032;-64
2023/08/14 12:20:59;;;;;;;2.07;0.93;;;;;;;;;;5074159;28;20040;-65
2023/08/14 12:23:24;;;;;;;2.47;1.00;;;;;;;;;;5085059;28;20073;-65
2023/08/14 12:25:49;;;;;;;2.97;1.07;;;;;;;;;;5075743;28;20441;-65
2023/08/14 12:28:15;;;;;;;3.67;1.63;;;;;;;;;;5071913;28;20295;-65
2023/08/14 12:30:40;;;;;;;4.13;1.33;;;;;;;;;;5093033;28;20016;-65
2023/08/14 12:33:05;;;;;;;4.07;1.53;;;;;;;;;;5093160;28;20024;-65
2023/08/14 12:35:31;;;;;;;3.20;1.23;;;;;;;;;;5085784;28;20024;-64
2023/08/14 12:37:56;;;;;;;3.13;1.03;;;;;;;;;;5072639;28;20641;-65
2023/08/14 12:40:21;;;;;;;2.10;1.10;;;;;;;;;;5072854;28;20352;-66
2023/08/14 12:42:46;;;;;;;2.60;1.23;;;;;;;;;;5075225;28;20107;-65
2023/08/14 12:45:12;;;;;;;3.85;1.70;;;;;;;;;;5072808;28;20274;-65
2023/08/14 12:47:37;;;;;;;6.23;1.70;;;;;;;;;;5071730;28;20025;-65
2023/08/14 12:50:02;;;;;;;3.90;1.10;;;;;;;;;;5072659;28;20021;-65
2023/08/14 12:52:28;;;;;;;4.43;1.77;;;;;;;;;;5072797;28;20475;-65
2023/08/14 12:54:53;;;;;;;3.03;1.40;;;;;;;;;;5073369;28;20027;-65
2023/08/14 12:57:18;;;;;;;4.37;1.70;;;;;;;;;;5072847;28;20024;-65
2023/08/14 12:59:43;;;;;;;3.67;1.57;;;;;;;;;;5073794;28;20031;-65
2023/08/14 13:02:09;;;;;;;2.90;1.67;;;;;;;;;;5073284;28;20468;-65
2023/08/14 13:04:34;;;;;;;3.37;1.30;;;;;;;;;;5043878;28;20871;-65
2023/08/14 13:07:00;;;;;;;2.87;1.33;;;;;;;;;;5041286;28;20266;-65
2023/08/14 13:09:25;;;;;;;2.40;1.33;;;;;;;;;;5036259;28;20024;-65
2023/08/14 13:11:50;;;;;;;5.13;1.57;;;;;;;;;;5086538;28;20020;-65
2023/08/14 13:14:15;;;;;;;2.57;1.23;;;;;;;;;;5072233;28;20025;-64
2023/08/14 13:16:41;;;;;;;7.93;1.60;;;;;;;;;;5079808;28;20028;-65
2023/08/14 13:19:06;;;;;;;2.63;1.23;;;;;;;;;;5076275;28;20749;-65
2023/08/14 13:21:31;;;;;;;3.58;1.70;;;;;;;;;;5085816;28;20024;-65
2023/08/14 13:23:56;;;;;;;3.27;1.43;;;;;;;;;;5084736;28;20407;-65
2023/08/14 13:26:23;;;;;;;6.55;1.60;;;;;;;;;;5087384;28;20270;-65
2023/08/14 13:28:48;;;;;;;3.75;1.80;;;;;;;;;;5083683;28;20029;-65
2023/08/14 13:31:13;;;;;;;2.50;1.10;;;;;;;;;;5082885;28;20024;-65
2023/08/14 13:33:38;;;;;;;6.30;1.60;;;;;;;;;;5085159;28;20021;-64
2023/08/14 13:36:04;;;;;;;2.88;1.35;;;;;;;;;;5088931;28;20024;-64
2023/08/14 13:38:29;;;;;;;3.63;1.35;;;;;;;;;;5084254;28;20024;-64
2023/08/14 13:40:55;;;;;;;3.80;1.77;;;;;;;;;;5077976;28;20490;-64
2023/08/14 13:43:20;;;;;;;4.13;1.50;;;;;;;;;;5087360;28;20361;-64
2023/08/14 13:45:45;;;;;;;3.37;1.57;;;;;;;;;;5089232;28;20070;-64
2023/08/14 13:48:11;;;;;;;3.70;1.75;;;;;;;;;;5087243;28;20021;-64
2023/08/14 13:50:37;;;;;;;6.40;1.83;;;;;;;;;;5090008;28;20020;-64
2023/08/14 13:53:03;;;;;;;4.13;1.45;;;;;;;;;;5088338;28;20093;-64
2023/08/14 13:55:29;;;;;;;4.70;1.60;;;;;;;;;;5089578;28;20467;-64
2023/08/14 13:57:54;;;;;;;4.57;2.10;;;;;;;;;;5087788;28;20025;-64
2023/08/14 14:00:19;;;;;;;4.20;1.47;;;;;;;;;;5080839;28;20847;-65
2023/08/14 14:02:44;;;;;;;5.60;1.73;;;;;;;;;;5079194;28;20051;-64
2023/08/14 14:05:11;;;;;;;4.77;1.40;;;;;;;;;;5084440;28;20069;-64
2023/08/14 14:07:36;;;;;;;4.47;1.83;;;;;;;;;;5078035;28;20271;-64
2023/08/14 14:10:01;;;;;;;4.32;1.63;;;;;;;;;;5084471;28;20027;-64
2023/08/14 14:12:28;;;;;;;4.25;1.80;;;;;;;;;;5076971;28;20012;-64
2023/08/14 14:14:53;;;;;;;4.40;1.75;;;;;;;;;;5076210;28;20419;-64
2023/08/14 14:17:18;;;;;;;3.83;1.75;;;;;;;;;;5079661;28;20127;-64
2023/08/14 14:19:43;;;;;;;2.70;1.37;;;;;;;;;;5076082;28;20417;-64
2023/08/14 14:22:09;;;;;;;3.60;1.58;;;;;;;;;;5079396;28;20044;-64
2023/08/14 14:24:34;;;;;;;3.30;1.25;;;;;;;;;;5085731;28;20413;-64
2023/08/14 14:27:00;;;;;;;6.70;1.77;;;;;;;;;;5084551;28;20062;-65
2023/08/14 14:29:25;;;;;;;4.22;1.70;;;;;;;;;;5080637;28;20032;-64
2023/08/14 14:31:51;;;;;;;2.78;1.30;;;;;;;;;;5072986;28;20354;-65
2023/08/14 14:34:16;;;;;;;4.40;1.50;;;;;;;;;;5061074;28;20024;-65